sensor_id;sensor_type;location;lat;lon;timestamp;P1;durP1;ratioP1;P2;durP2;ratioP2
51985;SDS011;38002;53.296;6.600;2023-07-31T00:02:18;5.17;;;3.80;;
51985;SDS011;38002;53.296;6.600;2023-07-31T00:07:18;5.97;;;3.57;;
51985;SDS011;38002;53.296;6.600;2023-07-31T00:12:21;4.50;;;3.60;;
51985;SDS011;38002;53.296;6.600;2023-07-31T00:17:22;8.90;;;4.75;;
51985;SDS011;38002;53.296;6.600;2023-07-31T00:22:22;4.50;;;4.10;;
51985;SDS011;38002;53.296;6.600;2023-07-31T00:27:23;6.37;;;4.40;;
51985;SDS011;38002;53.296;6.600;2023-07-31T00:32:23;4.60;;;3.13;;
51985;SDS011;38002;53.296;6.600;2023-07-31T00:37:24;4.57;;;3.00;;
51985;SDS011;38002;53.296;6.600;2023-07-31T00:42:24;2.53;;;2.33;;
51985;SDS011;38002;53.296;6.600;2023-07-31T00:47:25;4.73;;;2.40;;
51985;SDS011;38002;53.296;6.600;2023-07-31T00:52:25;2.37;;;2.17;;
51985;SDS011;38002;53.296;6.600;2023-07-31T00:57:26;2.67;;;2.10;;
51985;SDS011;38002;53.296;6.600;2023-07-31T01:02:26;1.77;;;1.60;;
51985;SDS011;38002;53.296;6.600;2023-07-31T01:12:31;4.22;;;3.08;;
51985;SDS011;38002;53.296;6.600;2023-07-31T01:17:31;2.33;;;2.13;;
51985;SDS011;38002;53.296;6.600;2023-07-31T01:27:34;2.87;;;2.67;;
51985;SDS011;38002;53.296;6.600;2023-07-31T01:32:40;2.25;;;2.08;;
51985;SDS011;38002;53.296;6.600;2023-07-31T01:37:42;2.28;;;2.08;;
51985;SDS011;38002;53.296;6.600;2023-07-31T01:42:43;2.88;;;1.92;;
51985;SDS011;38002;53.296;6.600;2023-07-31T01:47:44;1.80;;;1.70;;
51985;SDS011;38002;53.296;6.600;2023-07-31T01:52:44;2.40;;;2.20;;
51985;SDS011;38002;53.296;6.600;2023-07-31T01:57:45;2.70;;;2.30;;
51985;SDS011;38002;53.296;6.600;2023-07-31T02:02:46;2.60;;;2.40;;
51985;SDS011;38002;53.296;6.600;2023-07-31T02:07:46;3.43;;;3.20;;
51985;SDS011;38002;53.296;6.600;2023-07-31T02:12:47;3.10;;;2.87;;
51985;SDS011;38002;53.296;6.600;2023-07-31T02:17:47;3.77;;;2.30;;
51985;SDS011;38002;53.296;6.600;2023-07-31T02:22:47;2.50;;;1.97;;
51985;SDS011;38002;53.296;6.600;2023-07-31T02:27:48;2.63;;;2.27;;
51985;SDS011;38002;53.296;6.600;2023-07-31T02:32:48;1.70;;;1.60;;
51985;SDS011;38002;53.296;6.600;2023-07-31T02:37:49;2.33;;;2.10;;
51985;SDS011;38002;53.296;6.600;2023-07-31T02:42:50;1.80;;;1.70;;
51985;SDS011;38002;53.296;6.600;2023-07-31T02:47:50;2.00;;;1.83;;
51985;SDS011;38002;53.296;6.600;2023-07-31T02:52:50;3.03;;;2.10;;
51985;SDS011;38002;53.296;6.600;2023-07-31T02:57:51;2.97;;;1.80;;
51985;SDS011;38002;53.296;6.600;2023-07-31T03:02:52;2.20;;;1.80;;
51985;SDS011;38002;53.296;6.600;2023-07-31T03:07:52;2.20;;;1.77;;
51985;SDS011;38002;53.296;6.600;2023-07-31T03:12:53;1.60;;;1.50;;
51985;SDS011;38002;53.296;6.600;2023-07-31T03:17:53;2.43;;;1.53;;
51985;SDS011;38002;53.296;6.600;2023-07-31T03:22:54;3.07;;;1.77;;
51985;SDS011;38002;53.296;6.600;2023-07-31T03:27:54;2.00;;;1.40;;
51985;SDS011;38002;53.296;6.600;2023-07-31T03:32:55;1.80;;;1.70;;
51985;SDS011;38002;53.296;6.600;2023-07-31T03:37:55;3.37;;;1.90;;
51985;SDS011;38002;53.296;6.600;2023-07-31T03:42:56;2.07;;;1.33;;
51985;SDS011;38002;53.296;6.600;2023-07-31T03:47:56;1.70;;;1.60;;
51985;SDS011;38002;53.296;6.600;2023-07-31T03:52:57;1.50;;;1.40;;
51985;SDS011;38002;53.296;6.600;2023-07-31T03:57:57;3.90;;;1.87;;
51985;SDS011;38002;53.296;6.600;2023-07-31T04:02:58;4.70;;;1.20;;
51985;SDS011;38002;53.296;6.600;2023-07-31T04:07:58;1.57;;;1.47;;
51985;SDS011;38002;53.296;6.600;2023-07-31T04:12:59;3.63;;;1.60;;
51985;SDS011;38002;53.296;6.600;2023-07-31T04:18:00;1.20;;;1.15;;
51985;SDS011;38002;53.296;6.600;2023-07-31T04:23:01;2.20;;;1.77;;
51985;SDS011;38002;53.296;6.600;2023-07-31T04:28:01;5.97;;;1.30;;
51985;SDS011;38002;53.296;6.600;2023-07-31T04:33:02;1.83;;;0.97;;
51985;SDS011;38002;53.296;6.600;2023-07-31T04:38:02;0.90;;;0.90;;
51985;SDS011;38002;53.296;6.600;2023-07-31T04:43:03;3.87;;;1.17;;
51985;SDS011;38002;53.296;6.600;2023-07-31T04:48:03;2.80;;;0.90;;
51985;SDS011;38002;53.296;6.600;2023-07-31T04:53:04;2.53;;;1.23;;
51985;SDS011;38002;53.296;6.600;2023-07-31T04:58:05;1.33;;;1.20;;
51985;SDS011;38002;53.296;6.600;2023-07-31T05:03:06;1.13;;;1.00;;
51985;SDS011;38002;53.296;6.600;2023-07-31T05:08:07;1.37;;;1.10;;
51985;SDS011;38002;53.296;6.600;2023-07-31T05:13:07;1.53;;;1.30;;
51985;SDS011;38002;53.296;6.600;2023-07-31T05:18:08;0.93;;;0.93;;
51985;SDS011;38002;53.296;6.600;2023-07-31T05:23:08;1.13;;;0.77;;
51985;SDS011;38002;53.296;6.600;2023-07-31T05:28:09;0.67;;;0.67;;
51985;SDS011;38002;53.296;6.600;2023-07-31T05:33:09;1.53;;;0.70;;
51985;SDS011;38002;53.296;6.600;2023-07-31T05:38:10;0.60;;;0.60;;
51985;SDS011;38002;53.296;6.600;2023-07-31T05:43:10;0.70;;;0.70;;
51985;SDS011;38002;53.296;6.600;2023-07-31T05:48:11;5.87;;;0.90;;
51985;SDS011;38002;53.296;6.600;2023-07-31T05:53:11;2.33;;;0.50;;
51985;SDS011;38002;53.296;6.600;2023-07-31T05:58:12;0.40;;;0.40;;
51985;SDS011;38002;53.296;6.600;2023-07-31T06:03:12;0.40;;;0.40;;
51985;SDS011;38002;53.296;6.600;2023-07-31T06:08:13;0.83;;;0.50;;
51985;SDS011;38002;53.296;6.600;2023-07-31T06:13:13;0.53;;;0.53;;
51985;SDS011;38002;53.296;6.600;2023-07-31T06:18:13;0.93;;;0.50;;
51985;SDS011;38002;53.296;6.600;2023-07-31T06:23:14;1.07;;;0.70;;
51985;SDS011;38002;53.296;6.600;2023-07-31T06:28:14;0.80;;;0.80;;
51985;SDS011;38002;53.296;6.600;2023-07-31T06:33:18;2.25;;;0.70;;
51985;SDS011;38002;53.296;6.600;2023-07-31T06:38:22;1.23;;;1.00;;
51985;SDS011;38002;53.296;6.600;2023-07-31T06:43:25;1.08;;;0.98;;
51985;SDS011;38002;53.296;6.600;2023-07-31T06:48:25;2.37;;;1.17;;
51985;SDS011;38002;53.296;6.600;2023-07-31T06:53:26;2.27;;;1.80;;
51985;SDS011;38002;53.296;6.600;2023-07-31T06:58:26;5.33;;;2.17;;
51985;SDS011;38002;53.296;6.600;2023-07-31T07:03:27;6.63;;;2.37;;
51985;SDS011;38002;53.296;6.600;2023-07-31T07:08:27;6.80;;;3.20;;
51985;SDS011;38002;53.296;6.600;2023-07-31T07:13:28;22.77;;;5.07;;
51985;SDS011;38002;53.296;6.600;2023-07-31T07:18:31;12.90;;;5.20;;
51985;SDS011;38002;53.296;6.600;2023-07-31T07:23:31;13.48;;;4.53;;
51985;SDS011;38002;53.296;6.600;2023-07-31T07:28:32;19.37;;;4.87;;
51985;SDS011;38002;53.296;6.600;2023-07-31T07:33:32;19.47;;;4.70;;
51985;SDS011;38002;53.296;6.600;2023-07-31T07:38:33;12.37;;;4.40;;
51985;SDS011;38002;53.296;6.600;2023-07-31T07:43:33;9.23;;;2.93;;
51985;SDS011;38002;53.296;6.600;2023-07-31T07:48:34;9.57;;;4.17;;
51985;SDS011;38002;53.296;6.600;2023-07-31T07:53:34;12.80;;;3.37;;
51985;SDS011;38002;53.296;6.600;2023-07-31T07:58:34;15.37;;;3.93;;
51985;SDS011;38002;53.296;6.600;2023-07-31T08:03:35;10.07;;;3.50;;
51985;SDS011;38002;53.296;6.600;2023-07-31T08:08:36;9.07;;;3.70;;
51985;SDS011;38002;53.296;6.600;2023-07-31T08:13:37;11.07;;;3.50;;
51985;SDS011;38002;53.296;6.600;2023-07-31T08:18:40;4.80;;;2.30;;
51985;SDS011;38002;53.296;6.600;2023-07-31T08:23:40;1.13;;;0.90;;
51985;SDS011;38002;53.296;6.600;2023-07-31T08:28:41;0.70;;;0.70;;
51985;SDS011;38002;53.296;6.600;2023-07-31T08:33:41;0.70;;;0.70;;
51985;SDS011;38002;53.296;6.600;2023-07-31T08:38:42;1.57;;;0.93;;
51985;SDS011;38002;53.296;6.600;2023-07-31T08:43:42;0.60;;;0.60;;
51985;SDS011;38002;53.296;6.600;2023-07-31T08:48:45;0.88;;;0.65;;
51985;SDS011;38002;53.296;6.600;2023-07-31T08:53:47;0.75;;;0.60;;
51985;SDS011;38002;53.296;6.600;2023-07-31T08:58:48;1.37;;;0.60;;
51985;SDS011;38002;53.296;6.600;2023-07-31T09:03:50;0.88;;;0.68;;
51985;SDS011;38002;53.296;6.600;2023-07-31T09:13:52;0.43;;;0.40;;
51985;SDS011;38002;53.296;6.600;2023-07-31T09:18:56;0.40;;;0.40;;
51985;SDS011;38002;53.296;6.600;2023-07-31T09:23:57;0.55;;;0.40;;
51985;SDS011;38002;53.296;6.600;2023-07-31T09:28:58;1.60;;;0.40;;
51985;SDS011;38002;53.296;6.600;2023-07-31T09:39:03;0.30;;;0.30;;
51985;SDS011;38002;53.296;6.600;2023-07-31T09:44:04;0.35;;;0.35;;
51985;SDS011;38002;53.296;6.600;2023-07-31T09:49:12;0.37;;;0.37;;
51985;SDS011;38002;53.296;6.600;2023-07-31T09:54:15;0.40;;;0.30;;
51985;SDS011;38002;53.296;6.600;2023-07-31T09:59:20;0.20;;;0.20;;
51985;SDS011;38002;53.296;6.600;2023-07-31T10:04:20;0.52;;;0.20;;
51985;SDS011;38002;53.296;6.600;2023-07-31T10:09:26;0.60;;;0.40;;
51985;SDS011;38002;53.296;6.600;2023-07-31T10:14:30;0.20;;;0.20;;
51985;SDS011;38002;53.296;6.600;2023-07-31T10:19:31;0.20;;;0.20;;
51985;SDS011;38002;53.296;6.600;2023-07-31T10:24:32;0.47;;;0.40;;
51985;SDS011;38002;53.296;6.600;2023-07-31T10:29:33;0.43;;;0.43;;
51985;SDS011;38002;53.296;6.600;2023-07-31T10:39:36;2.53;;;1.00;;
51985;SDS011;38002;53.296;6.600;2023-07-31T10:44:43;0.80;;;0.80;;
51985;SDS011;38002;53.296;6.600;2023-07-31T10:49:45;1.70;;;0.93;;
51985;SDS011;38002;53.296;6.600;2023-07-31T10:54:47;2.28;;;0.80;;
51985;SDS011;38002;53.296;6.600;2023-07-31T10:59:50;2.07;;;1.10;;
51985;SDS011;38002;53.296;6.600;2023-07-31T11:05:07;0.82;;;0.82;;
51985;SDS011;38002;53.296;6.600;2023-07-31T11:10:09;2.15;;;0.60;;
51985;SDS011;38002;53.296;6.600;2023-07-31T11:15:09;0.80;;;0.70;;
51985;SDS011;38002;53.296;6.600;2023-07-31T11:20:14;0.65;;;0.60;;
51985;SDS011;38002;53.296;6.600;2023-07-31T11:25:15;2.50;;;0.90;;
51985;SDS011;38002;53.296;6.600;2023-07-31T11:35:18;1.52;;;0.95;;
51985;SDS011;38002;53.296;6.600;2023-07-31T11:40:19;2.67;;;1.10;;
51985;SDS011;38002;53.296;6.600;2023-07-31T11:45:20;1.03;;;0.90;;
51985;SDS011;38002;53.296;6.600;2023-07-31T11:50:20;2.10;;;0.73;;
51985;SDS011;38002;53.296;6.600;2023-07-31T12:00:29;1.67;;;0.70;;
51985;SDS011;38002;53.296;6.600;2023-07-31T12:05:31;0.73;;;0.70;;
51985;SDS011;38002;53.296;6.600;2023-07-31T12:10:32;0.80;;;0.70;;
51985;SDS011;38002;53.296;6.600;2023-07-31T12:15:43;3.83;;;1.10;;
51985;SDS011;38002;53.296;6.600;2023-07-31T12:20:54;2.17;;;0.80;;
51985;SDS011;38002;53.296;6.600;2023-07-31T12:26:06;1.17;;;0.88;;
51985;SDS011;38002;53.296;6.600;2023-07-31T12:31:12;1.50;;;1.40;;
51985;SDS011;38002;53.296;6.600;2023-07-31T12:36:18;1.20;;;0.70;;
51985;SDS011;38002;53.296;6.600;2023-07-31T12:41:22;2.55;;;1.15;;
51985;SDS011;38002;53.296;6.600;2023-07-31T12:46:23;3.07;;;0.97;;
51985;SDS011;38002;53.296;6.600;2023-07-31T12:51:23;2.13;;;0.97;;
51985;SDS011;38002;53.296;6.600;2023-07-31T12:56:24;1.63;;;0.80;;
51985;SDS011;38002;53.296;6.600;2023-07-31T13:01:24;2.23;;;1.30;;
51985;SDS011;38002;53.296;6.600;2023-07-31T13:06:25;3.33;;;0.90;;
51985;SDS011;38002;53.296;6.600;2023-07-31T13:11:25;2.23;;;1.00;;
51985;SDS011;38002;53.296;6.600;2023-07-31T13:16:26;1.33;;;1.20;;
51985;SDS011;38002;53.296;6.600;2023-07-31T13:21:27;1.65;;;1.27;;
51985;SDS011;38002;53.296;6.600;2023-07-31T13:26:27;2.30;;;1.50;;
51985;SDS011;38002;53.296;6.600;2023-07-31T13:31:28;3.63;;;1.57;;
51985;SDS011;38002;53.296;6.600;2023-07-31T13:36:28;3.93;;;1.70;;
51985;SDS011;38002;53.296;6.600;2023-07-31T13:41:29;6.37;;;2.20;;
51985;SDS011;38002;53.296;6.600;2023-07-31T13:46:29;4.77;;;2.00;;
51985;SDS011;38002;53.296;6.600;2023-07-31T13:51:31;6.82;;;2.17;;
51985;SDS011;38002;53.296;6.600;2023-07-31T13:56:31;4.33;;;1.40;;
51985;SDS011;38002;53.296;6.600;2023-07-31T14:01:32;3.47;;;1.87;;
51985;SDS011;38002;53.296;6.600;2023-07-31T14:06:32;5.53;;;2.23;;
51985;SDS011;38002;53.296;6.600;2023-07-31T14:11:33;8.90;;;2.20;;
51985;SDS011;38002;53.296;6.600;2023-07-31T14:16:34;4.90;;;1.70;;
51985;SDS011;38002;53.296;6.600;2023-07-31T14:21:34;3.47;;;2.07;;
51985;SDS011;38002;53.296;6.600;2023-07-31T14:26:35;4.13;;;2.80;;
51985;SDS011;38002;53.296;6.600;2023-07-31T14:31:35;4.90;;;2.43;;
51985;SDS011;38002;53.296;6.600;2023-07-31T14:36:36;9.33;;;2.20;;
51985;SDS011;38002;53.296;6.600;2023-07-31T14:41:36;6.93;;;2.17;;
51985;SDS011;38002;53.296;6.600;2023-07-31T14:46:37;8.00;;;2.17;;
51985;SDS011;38002;53.296;6.600;2023-07-31T14:51:38;7.47;;;2.47;;
51985;SDS011;38002;53.296;6.600;2023-07-31T14:56:38;5.87;;;2.20;;
51985;SDS011;38002;53.296;6.600;2023-07-31T15:01:39;5.67;;;2.53;;
51985;SDS011;38002;53.296;6.600;2023-07-31T15:06:39;6.13;;;2.83;;
51985;SDS011;38002;53.296;6.600;2023-07-31T15:11:39;6.23;;;2.57;;
51985;SDS011;38002;53.296;6.600;2023-07-31T15:16:40;12.93;;;3.20;;
51985;SDS011;38002;53.296;6.600;2023-07-31T15:21:40;8.73;;;2.87;;
51985;SDS011;38002;53.296;6.600;2023-07-31T15:26:41;17.93;;;3.33;;
51985;SDS011;38002;53.296;6.600;2023-07-31T15:31:45;10.18;;;2.72;;
51985;SDS011;38002;53.296;6.600;2023-07-31T15:36:46;6.65;;;2.53;;
51985;SDS011;38002;53.296;6.600;2023-07-31T15:41:46;7.50;;;2.97;;
51985;SDS011;38002;53.296;6.600;2023-07-31T15:46:47;8.33;;;2.90;;
51985;SDS011;38002;53.296;6.600;2023-07-31T15:51:48;9.13;;;2.40;;
51985;SDS011;38002;53.296;6.600;2023-07-31T15:56:48;7.70;;;2.40;;
51985;SDS011;38002;53.296;6.600;2023-07-31T16:01:49;4.77;;;2.30;;
51985;SDS011;38002;53.296;6.600;2023-07-31T16:06:49;5.00;;;1.83;;
51985;SDS011;38002;53.296;6.600;2023-07-31T16:11:50;5.77;;;1.83;;
51985;SDS011;38002;53.296;6.600;2023-07-31T16:16:50;4.80;;;1.97;;
51985;SDS011;38002;53.296;6.600;2023-07-31T16:21:51;5.27;;;1.77;;
51985;SDS011;38002;53.296;6.600;2023-07-31T16:26:51;4.63;;;2.17;;
51985;SDS011;38002;53.296;6.600;2023-07-31T16:31:52;5.10;;;1.90;;
51985;SDS011;38002;53.296;6.600;2023-07-31T16:36:52;6.43;;;1.87;;
51985;SDS011;38002;53.296;6.600;2023-07-31T16:41:55;3.25;;;1.60;;
51985;SDS011;38002;53.296;6.600;2023-07-31T16:46:56;4.97;;;2.00;;
51985;SDS011;38002;53.296;6.600;2023-07-31T16:51:56;6.93;;;2.33;;
51985;SDS011;38002;53.296;6.600;2023-07-31T16:56:57;7.83;;;2.07;;
51985;SDS011;38002;53.296;6.600;2023-07-31T17:01:57;8.17;;;2.00;;
51985;SDS011;38002;53.296;6.600;2023-07-31T17:06:57;8.03;;;2.10;;
51985;SDS011;38002;53.296;6.600;2023-07-31T17:11:59;11.47;;;1.97;;
51985;SDS011;38002;53.296;6.600;2023-07-31T17:16:59;9.80;;;2.38;;
51985;SDS011;38002;53.296;6.600;2023-07-31T17:22:00;7.47;;;2.30;;
51985;SDS011;38002;53.296;6.600;2023-07-31T17:27:00;2.33;;;1.77;;
51985;SDS011;38002;53.296;6.600;2023-07-31T17:32:01;4.57;;;1.70;;
51985;SDS011;38002;53.296;6.600;2023-07-31T17:37:01;7.20;;;2.03;;
51985;SDS011;38002;53.296;6.600;2023-07-31T17:42:02;5.70;;;1.93;;
51985;SDS011;38002;53.296;6.600;2023-07-31T17:47:03;5.47;;;2.17;;
51985;SDS011;38002;53.296;6.600;2023-07-31T17:52:04;1.70;;;1.47;;
51985;SDS011;38002;53.296;6.600;2023-07-31T17:57:05;2.75;;;1.85;;
51985;SDS011;38002;53.296;6.600;2023-07-31T18:02:05;4.57;;;1.97;;
51985;SDS011;38002;53.296;6.600;2023-07-31T18:07:05;8.30;;;2.97;;
51985;SDS011;38002;53.296;6.600;2023-07-31T18:12:06;4.23;;;1.13;;
51985;SDS011;38002;53.296;6.600;2023-07-31T18:17:08;6.15;;;1.98;;
51985;SDS011;38002;53.296;6.600;2023-07-31T18:22:11;9.27;;;2.53;;
51985;SDS011;38002;53.296;6.600;2023-07-31T18:27:11;3.33;;;2.25;;
51985;SDS011;38002;53.296;6.600;2023-07-31T18:32:14;4.60;;;2.65;;
51985;SDS011;38002;53.296;6.600;2023-07-31T18:37:16;6.55;;;2.33;;
51985;SDS011;38002;53.296;6.600;2023-07-31T18:42:17;7.87;;;3.13;;
51985;SDS011;38002;53.296;6.600;2023-07-31T18:47:17;6.77;;;2.20;;
51985;SDS011;38002;53.296;6.600;2023-07-31T18:52:18;5.90;;;2.40;;
51985;SDS011;38002;53.296;6.600;2023-07-31T18:57:18;7.00;;;2.00;;
51985;SDS011;38002;53.296;6.600;2023-07-31T19:02:19;5.03;;;2.20;;
51985;SDS011;38002;53.296;6.600;2023-07-31T19:07:19;9.53;;;2.60;;
51985;SDS011;38002;53.296;6.600;2023-07-31T19:12:20;6.60;;;2.67;;
51985;SDS011;38002;53.296;6.600;2023-07-31T19:17:20;6.77;;;2.80;;
51985;SDS011;38002;53.296;6.600;2023-07-31T19:22:21;7.37;;;2.60;;
51985;SDS011;38002;53.296;6.600;2023-07-31T19:27:21;4.63;;;2.30;;
51985;SDS011;38002;53.296;6.600;2023-07-31T19:32:22;3.93;;;2.10;;
51985;SDS011;38002;53.296;6.600;2023-07-31T19:37:23;3.60;;;2.50;;
51985;SDS011;38002;53.296;6.600;2023-07-31T19:42:24;5.53;;;2.50;;
51985;SDS011;38002;53.296;6.600;2023-07-31T19:47:25;3.60;;;2.20;;
51985;SDS011;38002;53.296;6.600;2023-07-31T19:52:25;6.20;;;2.40;;
51985;SDS011;38002;53.296;6.600;2023-07-31T19:57:26;5.00;;;3.17;;
51985;SDS011;38002;53.296;6.600;2023-07-31T20:02:29;2.42;;;2.17;;
51985;SDS011;38002;53.296;6.600;2023-07-31T20:07:30;5.40;;;2.70;;
51985;SDS011;38002;53.296;6.600;2023-07-31T20:12:30;9.03;;;3.30;;
51985;SDS011;38002;53.296;6.600;2023-07-31T20:17:31;6.93;;;3.63;;
51985;SDS011;38002;53.296;6.600;2023-07-31T20:22:32;8.05;;;2.70;;
51985;SDS011;38002;53.296;6.600;2023-07-31T20:27:32;9.00;;;3.50;;
51985;SDS011;38002;53.296;6.600;2023-07-31T20:32:33;5.87;;;2.70;;
51985;SDS011;38002;53.296;6.600;2023-07-31T20:37:33;5.00;;;3.20;;
51985;SDS011;38002;53.296;6.600;2023-07-31T20:42:34;8.97;;;3.80;;
51985;SDS011;38002;53.296;6.600;2023-07-31T20:47:35;5.17;;;2.83;;
51985;SDS011;38002;53.296;6.600;2023-07-31T20:52:35;5.33;;;3.13;;
51985;SDS011;38002;53.296;6.600;2023-07-31T20:57:35;6.67;;;3.23;;
51985;SDS011;38002;53.296;6.600;2023-07-31T21:02:36;5.93;;;2.60;;
51985;SDS011;38002;53.296;6.600;2023-07-31T21:07:38;8.18;;;3.33;;
51985;SDS011;38002;53.296;6.600;2023-07-31T21:12:40;5.10;;;3.00;;
51985;SDS011;38002;53.296;6.600;2023-07-31T21:17:41;8.53;;;3.00;;
51985;SDS011;38002;53.296;6.600;2023-07-31T21:22:42;5.00;;;2.47;;
51985;SDS011;38002;53.296;6.600;2023-07-31T21:27:42;6.17;;;2.53;;
51985;SDS011;38002;53.296;6.600;2023-07-31T21:32:43;6.97;;;2.80;;
51985;SDS011;38002;53.296;6.600;2023-07-31T21:37:44;7.10;;;2.30;;
51985;SDS011;38002;53.296;6.600;2023-07-31T21:42:44;6.23;;;2.30;;
51985;SDS011;38002;53.296;6.600;2023-07-31T21:47:45;10.83;;;3.00;;
51985;SDS011;38002;53.296;6.600;2023-07-31T21:52:45;3.90;;;2.47;;
51985;SDS011;38002;53.296;6.600;2023-07-31T21:57:46;11.37;;;3.10;;
51985;SDS011;38002;53.296;6.600;2023-07-31T22:02:46;11.50;;;2.70;;
51985;SDS011;38002;53.296;6.600;2023-07-31T22:07:47;11.23;;;3.57;;
51985;SDS011;38002;53.296;6.600;2023-07-31T22:12:47;4.20;;;2.43;;
51985;SDS011;38002;53.296;6.600;2023-07-31T22:17:48;6.50;;;2.13;;
51985;SDS011;38002;53.296;6.600;2023-07-31T22:22:48;9.23;;;2.90;;
51985;SDS011;38002;53.296;6.600;2023-07-31T22:27:48;8.60;;;2.80;;
51985;SDS011;38002;53.296;6.600;2023-07-31T22:32:50;8.13;;;2.88;;
51985;SDS011;38002;53.296;6.600;2023-07-31T22:37:51;9.50;;;3.40;;
51985;SDS011;38002;53.296;6.600;2023-07-31T22:42:52;7.00;;;2.20;;
51985;SDS011;38002;53.296;6.600;2023-07-31T22:47:52;7.07;;;2.57;;
51985;SDS011;38002;53.296;6.600;2023-07-31T22:52:53;6.33;;;2.67;;
51985;SDS011;38002;53.296;6.600;2023-07-31T22:57:55;9.02;;;2.28;;
51985;SDS011;38002;53.296;6.600;2023-07-31T23:02:55;11.60;;;2.97;;
51985;SDS011;38002;53.296;6.600;2023-07-31T23:07:56;9.00;;;2.77;;
51985;SDS011;38002;53.296;6.600;2023-07-31T23:12:56;13.50;;;2.97;;
51985;SDS011;38002;53.296;6.600;2023-07-31T23:17:57;8.77;;;3.17;;
51985;SDS011;38002;53.296;6.600;2023-07-31T23:22:57;7.70;;;3.03;;
51985;SDS011;38002;53.296;6.600;2023-07-31T23:27:58;8.23;;;2.87;;
51985;SDS011;38002;53.296;6.600;2023-07-31T23:32:58;11.37;;;3.87;;
51985;SDS011;38002;53.296;6.600;2023-07-31T23:37:59;11.23;;;3.13;;
51985;SDS011;38002;53.296;6.600;2023-07-31T23:42:59;9.67;;;3.53;;
51985;SDS011;38002;53.296;6.600;2023-07-31T23:48:00;14.20;;;3.60;;
51985;SDS011;38002;53.296;6.600;2023-07-31T23:53:00;14.10;;;4.17;;
51985;SDS011;38002;53.296;6.600;2023-07-31T23:58:01;13.77;;;4.03;;
